Time;durP1;ratioP1;P1;durP2;ratioP2;P2;SDS_P1;SDS_P2;PMS_P1;PMS_P2;Temp;Humidity;BMP_temperature;BMP_pressure;BME280_temperature;BME280_humidity;BME280_pressure;Samples;Min_cycle;Max_cycle;Signal;HPM_P1;HPM_P2
2023/01/31 00:00:21;;;;;;;;;;;;;;;0.04;81.45;94799.16;5033684;28;1045;-50
2023/01/31 00:02:47;;;;;;;;;;;;;;;0.07;80.68;94791.03;5033588;28;1081;-50
2023/01/31 00:05:13;;;;;;;;;;;;;;;0.06;81.47;94776.25;5033521;28;978;-49
2023/01/31 00:07:39;;;;;;;;;;;;;;;0.14;80.80;94778.34;5033682;28;1029;-50
2023/01/31 00:10:06;;;;;;;;;;;;;;;0.02;81.12;94782.66;5033627;28;1914;-50
2023/01/31 00:12:32;;;;;;;;;;;;;;;0.16;81.49;94773.81;5033399;28;1065;-50
2023/01/31 00:14:58;;;;;;;;;;;;;;;0.32;81.06;94789.34;5033533;28;1274;-50
2023/01/31 00:17:24;;;;;;;;;;;;;;;0.42;80.68;94782.50;5033323;28;1050;-50
2023/01/31 00:19:51;;;;;;;;;;;;;;;0.44;80.04;94788.47;5032180;28;1089;-50
2023/01/31 00:22:17;;;;;;;;;;;;;;;0.31;79.95;94783.25;5033590;28;981;-50
2023/01/31 00:24:43;;;;;;;;;;;;;;;0.30;79.80;94780.72;5032306;28;1367;-50
2023/01/31 00:27:09;;;;;;;;;;;;;;;0.24;80.29;94779.34;5033254;28;1148;-50
2023/01/31 00:29:35;;;;;;;;;;;;;;;0.24;80.62;94781.97;5033224;28;1910;-50
2023/01/31 00:32:02;;;;;;;;;;;;;;;0.25;79.10;94774.94;5033180;28;1586;-50
2023/01/31 00:34:28;;;;;;;;;;;;;;;0.18;79.76;94782.41;5033173;28;1081;-50
2023/01/31 00:36:54;;;;;;;;;;;;;;;0.28;79.93;94779.97;5033201;28;1062;-50
2023/01/31 00:39:20;;;;;;;;;;;;;;;0.44;79.21;94779.72;5033274;28;977;-51
2023/01/31 00:41:46;;;;;;;;;;;;;;;0.45;79.99;94771.72;5033045;28;1185;-51
2023/01/31 00:44:12;;;;;;;;;;;;;;;0.48;80.22;94768.06;5033234;28;1042;-50
2023/01/31 00:46:38;;;;;;;;;;;;;;;0.34;80.33;94776.91;5032988;28;1046;-50
2023/01/31 00:49:04;;;;;;;;;;;;;;;0.30;80.82;94772.81;5031784;28;1991;-50
2023/01/31 00:51:30;;;;;;;;;;;;;;;0.39;80.91;94770.38;5033284;28;965;-49
2023/01/31 00:53:56;;;;;;;;;;;;;;;0.45;80.99;94758.59;5037228;28;1044;-50
2023/01/31 00:56:23;;;;;;;;;;;;;;;0.48;80.01;94753.13;5037117;28;1045;-50
2023/01/31 00:58:49;;;;;;;;;;;;;;;0.42;80.81;94752.69;5037132;28;962;-50
2023/01/31 01:01:17;;;;;;;;;;;;;;;0.27;80.80;94760.75;5036981;28;1068;-50
2023/01/31 01:03:44;;;;;;;;;;;;;;;0.26;80.67;94758.22;5037115;28;973;-50
2023/01/31 01:06:10;;;;;;;;;;;;;;;0.17;80.64;94765.81;5037098;28;1061;-50
2023/01/31 01:08:38;;;;;;;;;;;;;;;0.18;81.25;94766.66;5036911;28;1038;-50
2023/01/31 01:11:05;;;;;;;;;;;;;;;0.12;81.05;94769.72;5036857;28;1975;-49
2023/01/31 01:13:31;;;;;;;;;;;;;;;0.21;81.11;94760.31;5036691;28;1045;-50
2023/01/31 01:16:02;;;;;;;;;;;;;;;0.33;81.61;94764.72;5036612;28;1867;-50
2023/01/31 01:18:28;;;;;;;;;;;;;;;0.28;81.63;94770.28;5036554;28;1046;-50
2023/01/31 01:20:55;;;;;;;;;;;;;;;0.23;82.76;94769.81;5036667;28;978;-50
2023/01/31 01:23:21;;;;;;;;;;;;;;;0.17;82.39;94768.44;5036432;28;1053;-50
2023/01/31 01:25:47;;;;;;;;;;;;;;;0.19;82.35;94778.84;5036578;28;1056;-50
2023/01/31 01:28:13;;;;;;;;;;;;;;;0.30;81.91;94786.81;5036363;28;1067;-50
2023/01/31 01:30:39;;;;;;;;;;;;;;;0.44;82.11;94793.75;5036229;28;1988;-50
2023/01/31 01:33:05;;;;;;;;;;;;;;;0.35;82.22;94795.22;5036502;28;1250;-50
2023/01/31 01:35:31;;;;;;;;;;;;;;;0.25;83.24;94798.59;5036255;28;1034;-50
2023/01/31 01:37:57;;;;;;;;;;;;;;;0.18;83.72;94806.91;5036408;28;962;-50
2023/01/31 01:40:23;;;;;;;;;;;;;;;0.16;83.92;94806.19;5036239;28;997;-50
2023/01/31 01:42:49;;;;;;;;;;;;;;;0.25;83.08;94798.59;5036138;28;1224;-50
2023/01/31 01:45:15;;;;;;;;;;;;;;;0.22;83.49;94798.81;5034637;28;1020;-53
2023/01/31 01:47:49;;;;;;;;;;;;;;;0.18;83.41;94793.78;5036011;28;1852;-53
2023/01/31 01:50:27;;;;;;;;;;;;;;;0.16;83.41;94795.66;5035978;28;1989;-51
2023/01/31 01:52:55;;;;;;;;;;;;;;;0.20;83.12;94798.94;5036044;28;1045;-50
2023/01/31 01:55:29;;;;;;;;;;;;;;;0.16;83.54;94795.66;5035875;28;1888;-50
2023/01/31 01:57:59;;;;;;;;;;;;;;;0.17;83.48;94792.09;5035946;28;1046;-50
2023/01/31 02:00:27;;;;;;;;;;;;;;;0.19;83.38;94792.84;5036050;28;1055;-50
2023/01/31 02:02:55;;;;;;;;;;;;;;;-0.07;84.40;94786.75;5035969;28;1045;-50
2023/01/31 02:05:27;;;;;;;;;;;;;;;-0.07;84.40;94783.28;5035077;28;1049;-50
2023/01/31 02:07:53;;;;;;;;;;;;;;;0.02;84.18;94787.91;5035793;28;1154;-50
2023/01/31 02:10:22;;;;;;;;;;;;;;;0.07;84.18;94790.22;5035465;28;1917;-50
2023/01/31 02:12:48;;;;;;;;;;;;;;;0.23;83.79;94793.47;5035896;28;1209;-50
2023/01/31 02:15:15;;;;;;;;;;;;;;;0.30;83.29;94784.19;5035790;28;953;-50
2023/01/31 02:17:41;;;;;;;;;;;;;;;0.33;83.04;94783.97;5035598;28;1041;-50
2023/01/31 02:20:33;;;;;;;;;;;;;;;0.28;83.10;94779.97;5035501;28;1077;-50
2023/01/31 02:23:02;;;;;;;;;;;;;;;0.17;82.92;94792.09;5005421;28;1131;-50
2023/01/31 02:25:55;;;;;;;;;;;;;;;0.27;83.55;94786.22;5035321;28;1061;-50
2023/01/31 02:28:47;;;;;;;;;;;;;;;0.30;82.56;94783.34;5034099;28;1109;-50
2023/01/31 02:31:16;;;;;;;;;;;;;;;-0.03;84.08;94790.00;5005086;28;1610;-50
2023/01/31 02:33:51;;;;;;;;;;;;;;;-0.07;83.61;94789.38;5035376;28;1052;-50
2023/01/31 02:36:17;;;;;;;;;;;;;;;-0.12;83.92;94798.53;5035442;28;1002;-49
2023/01/31 02:39:02;;;;;;;;;;;;;;;0.07;83.51;94798.94;5035271;28;969;-50
2023/01/31 02:41:34;;;;;;;;;;;;;;;0.23;83.62;94800.50;5033775;28;1122;-51
2023/01/31 02:47:23;;;;;;;;;;;;;;;0.14;83.00;94821.22;5029941;28;1306;-51
2023/01/31 02:49:53;;;;;;;;;;;;;;;-0.04;84.22;94825.13;5034834;28;1910;-50
2023/01/31 02:52:22;;;;;;;;;;;;;;;0.01;83.71;94819.56;5034785;28;962;-50
2023/01/31 02:57:50;;;;;;;;;;;;;;;0.31;83.01;94819.22;4998254;28;1294;-50
2023/01/31 03:00:17;;;;;;;;;;;;;;;0.31;83.26;94813.97;5033649;28;967;-50
2023/01/31 03:02:43;;;;;;;;;;;;;;;0.31;82.87;94813.97;5034717;28;974;-50
2023/01/31 03:05:13;;;;;;;;;;;;;;;0.10;83.69;94816.31;5034683;28;1061;-50
2023/01/31 03:07:41;;;;;;;;;;;;;;;-0.01;83.50;94817.84;5034705;28;974;-50
2023/01/31 03:10:34;;;;;;;;;;;;;;;-0.10;84.12;94813.22;5034510;28;1991;-50
2023/01/31 03:13:17;;;;;;;;;;;;;;;-0.07;83.54;94820.09;5034588;28;1044;-50
2023/01/31 03:18:39;;;;;;;;;;;;;;;0.14;83.31;94808.09;5034360;28;1026;-50
2023/01/31 03:21:08;;;;;;;;;;;;;;;0.24;81.63;94812.69;5034301;28;1576;-50
2023/01/31 03:23:37;;;;;;;;;;;;;;;0.40;81.15;94818.59;5034232;28;994;-50
2023/01/31 03:26:05;;;;;;;;;;;;;;;0.44;81.56;94811.28;5034485;28;1120;-49
2023/01/31 03:28:34;;;;;;;;;;;;;;;0.42;81.54;94811.44;5034095;28;1117;-50
2023/01/31 03:31:04;;;;;;;;;;;;;;;0.28;82.18;94814.16;5034137;28;2010;-50
2023/01/31 03:33:41;;;;;;;;;;;;;;;0.08;82.79;94815.56;5034015;28;1533;-50
2023/01/31 03:36:45;;;;;;;;;;;;;;;0.16;82.76;94827.22;5034126;28;977;-50
2023/01/31 03:39:30;;;;;;;;;;;;;;;0.31;82.78;94820.06;4973094;28;1187;-50
2023/01/31 03:42:08;;;;;;;;;;;;;;;0.30;82.83;94821.00;4956864;28;1148;-51
2023/01/31 03:44:39;;;;;;;;;;;;;;;0.26;81.99;94827.41;5014254;28;1030;-50
2023/01/31 03:47:11;;;;;;;;;;;;;;;0.34;81.87;94834.78;5033853;28;1176;-51
2023/01/31 03:49:38;;;;;;;;;;;;;;;0.44;81.22;94835.84;5033908;28;1906;-50
2023/01/31 03:52:06;;;;;;;;;;;;;;;0.38;81.54;94850.25;5032671;28;1061;-50
2023/01/31 03:54:45;;;;;;;;;;;;;;;0.42;81.74;94858.78;5033795;28;1025;-50
2023/01/31 03:57:21;;;;;;;;;;;;;;;0.52;81.35;94870.31;5033629;28;1042;-50
2023/01/31 03:59:52;;;;;;;;;;;;;;;0.55;81.29;94869.25;5033683;28;914;-52
2023/01/31 04:02:20;;;;;;;;;;;;;;;0.51;82.18;94881.81;5033707;28;1005;-51
2023/01/31 04:05:06;;;;;;;;;;;;;;;0.52;81.86;94888.75;5033626;28;1010;-52
2023/01/31 04:07:33;;;;;;;;;;;;;;;0.51;81.59;94892.34;5033417;28;1078;-51
2023/01/31 04:09:59;;;;;;;;;;;;;;;0.47;81.48;94895.25;5033404;28;1934;-51
2023/01/31 04:12:25;;;;;;;;;;;;;;;0.54;81.66;94892.09;5033403;28;1081;-52
2023/01/31 04:14:51;;;;;;;;;;;;;;;0.54;81.16;94897.34;5032365;28;981;-51
2023/01/31 04:17:17;;;;;;;;;;;;;;;0.58;80.39;94900.63;5033385;28;1587;-50
2023/01/31 04:19:43;;;;;;;;;;;;;;;0.67;78.86;94899.16;5033295;28;1597;-51
2023/01/31 04:22:09;;;;;;;;;;;;;;;0.68;79.59;94908.72;5033186;28;1025;-51
2023/01/31 04:24:35;;;;;;;;;;;;;;;0.60;79.83;94897.91;5033088;28;1129;-51
2023/01/31 04:27:02;;;;;;;;;;;;;;;0.64;79.30;94899.34;5033119;28;986;-52
2023/01/31 04:29:28;;;;;;;;;;;;;;;0.85;78.09;94897.84;5033096;28;1918;-51
2023/01/31 04:31:54;;;;;;;;;;;;;;;1.15;76.22;94901.88;5033117;28;1234;-51
2023/01/31 04:34:20;;;;;;;;;;;;;;;1.34;75.35;94904.03;5033260;28;1025;-52
2023/01/31 04:36:46;;;;;;;;;;;;;;;1.36;75.14;94887.16;5033187;28;1147;-52
2023/01/31 04:39:13;;;;;;;;;;;;;;;1.45;74.79;94903.25;5032235;28;970;-53
2023/01/31 04:41:39;;;;;;;;;;;;;;;1.47;74.67;94899.56;5032923;28;1236;-52
2023/01/31 04:44:05;;;;;;;;;;;;;;;1.55;73.68;94899.81;5033164;28;1066;-52
2023/01/31 04:46:31;;;;;;;;;;;;;;;1.67;74.07;94898.09;5033193;28;989;-52
2023/01/31 04:48:57;;;;;;;;;;;;;;;1.77;73.22;94906.16;5033100;28;1914;-52
2023/01/31 04:51:23;;;;;;;;;;;;;;;1.80;74.03;94905.09;5032914;28;965;-52
2023/01/31 04:53:49;;;;;;;;;;;;;;;1.88;74.08;94900.09;5032993;28;1081;-52
2023/01/31 04:56:15;;;;;;;;;;;;;;;1.82;74.03;94908.44;5031991;28;1053;-52
2023/01/31 04:58:42;;;;;;;;;;;;;;;1.88;74.65;94908.00;5032974;28;1116;-53
2023/01/31 05:01:08;;;;;;;;;;;;;;;1.94;74.24;94912.81;5033122;28;1005;-53
2023/01/31 05:03:34;;;;;;;;;;;;;;;2.00;73.82;94916.78;5032919;28;1062;-52
2023/01/31 05:06:00;;;;;;;;;;;;;;;2.07;73.31;94910.13;5031733;28;1033;-53
2023/01/31 05:08:26;;;;;;;;;;;;;;;2.03;73.22;94916.53;5032954;28;1037;-53
2023/01/31 05:10:56;;;;;;;;;;;;;;;2.04;73.59;94926.97;5032973;28;1999;-54
2023/01/31 05:13:24;;;;;;;;;;;;;;;2.03;72.42;94920.03;5032967;28;957;-53
2023/01/31 05:15:50;;;;;;;;;;;;;;;2.13;72.35;94915.75;5032856;28;1101;-53
2023/01/31 05:18:16;;;;;;;;;;;;;;;2.11;72.29;94925.56;5032907;28;1060;-53
2023/01/31 05:20:42;;;;;;;;;;;;;;;2.11;72.14;94930.84;5032658;28;1050;-53
2023/01/31 05:23:09;;;;;;;;;;;;;;;2.08;72.22;94935.50;5031584;28;1022;-52
2023/01/31 05:25:36;;;;;;;;;;;;;;;2.06;72.94;94937.44;5032870;28;1035;-52
2023/01/31 05:28:03;;;;;;;;;;;;;;;2.12;72.55;94936.97;5032893;28;1095;-53
2023/01/31 05:30:29;;;;;;;;;;;;;;;2.14;72.45;94935.03;5032587;28;1910;-53
2023/01/31 05:32:55;;;;;;;;;;;;;;;2.25;71.99;94931.59;5032738;28;1531;-51
2023/01/31 05:35:21;;;;;;;;;;;;;;;2.34;71.34;94938.84;5064404;28;986;-53
2023/01/31 05:37:47;;;;;;;;;;;;;;;2.33;70.65;94940.63;5032701;28;1057;-53
2023/01/31 05:40:14;;;;;;;;;;;;;;;2.26;71.22;94949.13;5035372;28;1654;-53
2023/01/31 05:42:40;;;;;;;;;;;;;;;2.04;72.55;94948.09;5036140;28;1185;-53
2023/01/31 05:45:07;;;;;;;;;;;;;;;1.87;73.95;94951.97;5035086;28;1038;-53
2023/01/31 05:47:33;;;;;;;;;;;;;;;1.83;74.74;94950.53;5036108;28;1026;-54
2023/01/31 05:49:59;;;;;;;;;;;;;;;1.80;75.36;94953.38;5035965;28;1987;-53
2023/01/31 05:52:25;;;;;;;;;;;;;;;1.74;75.49;94949.38;5035984;28;1078;-53
2023/01/31 05:54:51;;;;;;;;;;;;;;;1.70;76.48;94960.28;5036169;28;1048;-53
2023/01/31 05:57:17;;;;;;;;;;;;;;;1.78;75.98;94978.16;5034884;28;1052;-54
2023/01/31 05:59:44;;;;;;;;;;;;;;;1.91;74.77;94968.41;5036048;28;1057;-53
2023/01/31 06:02:12;;;;;;;;;;;;;;;2.08;72.60;94967.16;5035920;28;950;-53
2023/01/31 06:04:38;;;;;;;;;;;;;;;2.28;71.27;94952.50;5035634;28;1038;-52
2023/01/31 06:07:04;;;;;;;;;;;;;;;2.25;71.39;94950.91;5035978;28;994;-53
2023/01/31 06:09:30;;;;;;;;;;;;;;;2.36;69.84;94939.56;5035681;28;1906;-53
2023/01/31 06:11:56;;;;;;;;;;;;;;;2.43;69.97;94935.50;5035776;28;1069;-53
2023/01/31 06:14:22;;;;;;;;;;;;;;;2.36;69.34;94929.00;5035617;28;1010;-53
2023/01/31 06:16:48;;;;;;;;;;;;;;;2.44;68.31;94933.69;5035731;28;1056;-53
2023/01/31 06:19:15;;;;;;;;;;;;;;;2.52;68.20;94941.84;5035531;28;1141;-53
2023/01/31 06:21:41;;;;;;;;;;;;;;;2.53;67.81;94941.75;5034314;28;1113;-53
2023/01/31 06:24:07;;;;;;;;;;;;;;;2.61;66.69;94935.88;5035695;28;1041;-53
2023/01/31 06:26:33;;;;;;;;;;;;;;;2.68;66.49;94941.53;5035343;28;906;-53
2023/01/31 06:28:59;;;;;;;;;;;;;;;2.74;66.83;94935.78;5035373;28;1913;-53
2023/01/31 06:31:25;;;;;;;;;;;;;;;2.79;66.41;94920.44;5035319;28;1612;-53
2023/01/31 06:33:51;;;;;;;;;;;;;;;2.82;65.62;94922.81;5035208;28;1046;-53
2023/01/31 06:36:17;;;;;;;;;;;;;;;2.93;65.29;94930.72;5035508;28;1048;-53
2023/01/31 06:38:43;;;;;;;;;;;;;;;2.99;65.70;94932.06;5035350;28;1025;-53
2023/01/31 06:41:09;;;;;;;;;;;;;;;2.99;64.78;94933.88;5035309;28;1001;-53
2023/01/31 06:43:35;;;;;;;;;;;;;;;2.96;65.09;94940.25;5034956;28;1122;-53
2023/01/31 06:46:01;;;;;;;;;;;;;;;3.00;64.85;94944.31;5035125;28;942;-53
2023/01/31 06:48:27;;;;;;;;;;;;;;;2.89;65.03;94952.22;5033753;28;1133;-53
2023/01/31 06:50:53;;;;;;;;;;;;;;;2.86;65.68;94963.03;5034926;28;1992;-53
2023/01/31 06:53:19;;;;;;;;;;;;;;;2.81;67.23;94967.81;5033705;28;1264;-52
2023/01/31 06:55:45;;;;;;;;;;;;;;;2.83;67.49;94965.91;5035232;28;1096;-53
2023/01/31 06:58:11;;;;;;;;;;;;;;;2.86;67.63;94969.13;5034912;28;1102;-53
2023/01/31 07:00:37;;;;;;;;;;;;;;;2.90;67.21;94978.53;5034796;28;1093;-53
2023/01/31 07:03:03;;;;;;;;;;;;;;;2.90;67.66;94965.31;5034687;28;1097;-53
2023/01/31 07:05:29;;;;;;;;;;;;;;;2.93;67.63;94967.72;5034935;28;1002;-53
2023/01/31 07:07:56;;;;;;;;;;;;;;;2.86;67.40;94965.66;5033763;28;981;-53
2023/01/31 07:10:22;;;;;;;;;;;;;;;2.80;68.22;94956.41;5034577;28;1910;-53
2023/01/31 07:12:48;;;;;;;;;;;;;;;2.90;68.24;94962.69;5034737;28;1029;-53
2023/01/31 07:15:14;;;;;;;;;;;;;;;2.90;68.35;94964.47;5033471;28;1062;-53
2023/01/31 07:17:40;;;;;;;;;;;;;;;2.89;68.90;94963.63;5034744;28;1057;-52
2023/01/31 07:20:06;;;;;;;;;;;;;;;2.87;68.99;94968.19;5035410;28;953;-53
2023/01/31 07:22:32;;;;;;;;;;;;;;;2.86;68.71;94963.03;5033237;28;1140;-53
2023/01/31 07:24:59;;;;;;;;;;;;;;;2.85;67.61;94964.00;5033437;28;1426;-53
2023/01/31 07:27:25;;;;;;;;;;;;;;;2.91;67.49;94959.06;5034416;28;1124;-53
2023/01/31 07:29:51;;;;;;;;;;;;;;;2.95;68.83;94954.41;5033136;28;1987;-53
2023/01/31 07:32:17;;;;;;;;;;;;;;;2.98;66.58;94955.94;5034211;28;1605;-53
2023/01/31 07:34:43;;;;;;;;;;;;;;;2.97;65.69;94955.09;5034187;28;1627;-53
2023/01/31 07:37:09;;;;;;;;;;;;;;;3.03;68.51;94959.06;5032977;28;1070;-53
2023/01/31 07:39:35;;;;;;;;;;;;;;;3.31;69.04;94949.81;5033893;28;1086;-53
2023/01/31 07:42:01;;;;;;;;;;;;;;;3.35;67.80;94958.34;5033844;28;1364;-54
2023/01/31 07:44:27;;;;;;;;;;;;;;;3.37;67.55;94951.13;5033905;28;1036;-54
2023/01/31 07:46:55;;;;;;;;;;;;;;;3.30;68.57;94956.91;5033910;28;1047;-54
2023/01/31 07:49:21;;;;;;;;;;;;;;;3.27;69.17;94959.78;5033724;28;1906;-53
2023/01/31 07:51:47;;;;;;;;;;;;;;;3.20;68.00;94963.03;5033894;28;1065;-53
2023/01/31 07:54:13;;;;;;;;;;;;;;;3.09;66.55;94967.38;5033785;28;1124;-53
2023/01/31 07:56:39;;;;;;;;;;;;;;;3.12;67.24;94975.03;5033797;28;1021;-53
2023/01/31 07:59:05;;;;;;;;;;;;;;;3.06;67.86;94972.06;5033854;28;1034;-53
2023/01/31 08:04:16;;;;;;;;;;;;;;;3.04;67.80;94988.00;5033799;28;1068;-53
2023/01/31 08:06:43;;;;;;;;;;;;;;;3.04;69.11;94995.09;5033766;28;962;-53
2023/01/31 08:09:10;;;;;;;;;;;;;;;3.05;69.95;94984.41;5033222;28;1902;-53
2023/01/31 08:11:36;;;;;;;;;;;;;;;3.00;68.20;94991.00;5033482;28;1120;-53
2023/01/31 08:14:02;;;;;;;;;;;;;;;2.96;66.19;94998.34;5033551;28;1032;-54
2023/01/31 08:16:30;;;;;;;;;;;;;;;3.02;65.27;94992.59;5033215;28;1066;-53
2023/01/31 08:18:56;;;;;;;;;;;;;;;3.01;63.89;94996.16;5033435;28;1062;-53
2023/01/31 08:21:22;;;;;;;;;;;;;;;3.00;64.96;95006.84;5029069;28;1270;-53
2023/01/31 08:23:49;;;;;;;;;;;;;;;3.02;66.83;95007.59;5033473;28;1118;-53
2023/01/31 08:26:17;;;;;;;;;;;;;;;3.01;67.23;94996.16;5033483;28;1068;-53
2023/01/31 08:28:44;;;;;;;;;;;;;;;3.07;67.88;94995.72;5033179;28;1144;-53
2023/01/31 08:31:14;;;;;;;;;;;;;;;3.06;69.02;94994.03;5032834;28;1999;-53
2023/01/31 08:33:40;;;;;;;;;;;;;;;3.11;67.93;94983.06;5012242;28;1049;-53
2023/01/31 08:36:16;;;;;;;;;;;;;;;3.23;67.60;94984.78;5013459;28;1042;-51
2023/01/31 08:38:43;;;;;;;;;;;;;;;3.32;65.50;94989.34;5013464;28;1073;-53
2023/01/31 08:41:10;;;;;;;;;;;;;;;3.28;64.90;94985.25;5013708;28;1040;-53
2023/01/31 08:43:36;;;;;;;;;;;;;;;3.44;65.76;94982.25;5032881;28;1179;-53
2023/01/31 08:46:05;;;;;;;;;;;;;;;3.72;65.53;94985.34;5033011;28;1054;-53
2023/01/31 08:48:33;;;;;;;;;;;;;;;3.90;64.54;94993.56;5032947;28;1050;-53
2023/01/31 08:51:00;;;;;;;;;;;;;;;3.92;64.00;94991.63;5033010;28;1995;-52
2023/01/31 08:53:26;;;;;;;;;;;;;;;3.89;62.61;94991.91;5032748;28;1043;-53
2023/01/31 08:55:56;;;;;;;;;;;;;;;3.76;61.55;94988.56;5032980;28;963;-53
2023/01/31 08:58:22;;;;;;;;;;;;;;;3.93;62.88;94988.03;5032945;28;1042;-53
2023/01/31 09:00:48;;;;;;;;;;;;;;;4.17;63.29;94981.69;5032960;28;910;-53
2023/01/31 09:03:15;;;;;;;;;;;;;;;4.28;63.14;94995.72;5030978;28;1264;-53
2023/01/31 09:05:41;;;;;;;;;;;;;;;4.32;61.99;95001.59;5032662;28;1124;-53
2023/01/31 09:08:07;;;;;;;;;;;;;;;4.26;61.98;94991.53;5033028;28;1069;-53
2023/01/31 09:10:33;;;;;;;;;;;;;;;4.26;61.49;94994.19;5032880;28;1910;-53
2023/01/31 09:13:00;;;;;;;;;;;;;;;4.06;61.49;94999.31;5033226;28;1105;-53
2023/01/31 09:15:26;;;;;;;;;;;;;;;3.99;60.31;94998.13;5036014;28;1090;-53
2023/01/31 09:17:52;;;;;;;;;;;;;;;3.97;62.13;94999.22;5035635;28;1026;-53
2023/01/31 09:20:18;;;;;;;;;;;;;;;4.00;61.66;94999.78;5035656;28;966;-53
2023/01/31 09:22:44;;;;;;;;;;;;;;;4.07;61.87;95000.13;5036628;28;1077;-53
2023/01/31 09:25:10;;;;;;;;;;;;;;;4.13;61.34;95004.09;5035226;28;1086;-53
2023/01/31 09:27:37;;;;;;;;;;;;;;;4.15;61.89;95002.16;5036537;28;1066;-53
2023/01/31 09:30:05;;;;;;;;;;;;;;;4.06;62.34;94996.66;5036714;28;2000;-53
2023/01/31 09:32:31;;;;;;;;;;;;;;;4.16;61.98;94991.44;5036424;28;1697;-53
2023/01/31 09:34:57;;;;;;;;;;;;;;;4.28;59.98;94982.50;5036455;28;1171;-52
2023/01/31 09:37:24;;;;;;;;;;;;;;;4.39;61.13;94978.97;5036320;28;1045;-52
2023/01/31 09:39:50;;;;;;;;;;;;;;;4.52;60.56;94970.84;5036266;28;1097;-53
2023/01/31 09:42:16;;;;;;;;;;;;;;;4.81;60.08;94965.72;5036097;28;1082;-53
2023/01/31 09:44:44;;;;;;;;;;;;;;;4.91;58.39;94972.88;5036123;28;1108;-54
2023/01/31 09:47:10;;;;;;;;;;;;;;;5.00;58.84;94967.63;5036285;28;978;-53
2023/01/31 09:49:41;;;;;;;;;;;;;;;5.02;59.14;94962.22;5036110;28;1989;-53
2023/01/31 09:52:09;;;;;;;;;;;;;;;4.97;59.92;94959.09;5036160;28;1116;-53
2023/01/31 09:54:37;;;;;;;;;;;;;;;4.94;59.85;94954.91;5035670;28;1058;-52
2023/01/31 09:57:23;;;;;;;;;;;;;;;4.94;60.31;94946.97;5035936;28;1046;-52
2023/01/31 10:00:21;;;;;;;;;;;;;;;4.91;59.74;94949.88;5015151;28;1236;-52
2023/01/31 10:02:59;;;;;;;;;;;;;;;4.84;60.59;94938.16;5013398;28;1239;-52
2023/01/31 10:05:28;;;;;;;;;;;;;;;4.85;59.36;94940.63;5035768;28;1036;-52
2023/01/31 10:08:06;;;;;;;;;;;;;;;4.86;60.00;94937.03;5035999;28;1041;-52
2023/01/31 10:10:36;;;;;;;;;;;;;;;4.88;60.91;94924.50;5035730;28;1989;-53
2023/01/31 10:13:05;;;;;;;;;;;;;;;4.96;60.17;94930.94;5035758;28;1009;-53
2023/01/31 10:15:35;;;;;;;;;;;;;;;4.86;60.62;94917.66;5035406;28;1097;-53
2023/01/31 10:18:05;;;;;;;;;;;;;;;4.86;60.79;94923.78;5035647;28;1078;-52
2023/01/31 10:20:38;;;;;;;;;;;;;;;4.93;59.93;94920.59;5036019;28;1025;-52
2023/01/31 10:23:17;;;;;;;;;;;;;;;4.92;58.92;94925.06;5035515;28;1153;-52
2023/01/31 10:25:51;;;;;;;;;;;;;;;4.88;59.33;94915.72;5034644;28;1104;-53
2023/01/31 10:28:31;;;;;;;;;;;;;;;5.02;60.50;94909.22;5035430;28;1042;-52
2023/01/31 10:31:15;;;;;;;;;;;;;;;5.18;59.53;94908.72;5035627;28;1910;-53
2023/01/31 10:33:51;;;;;;;;;;;;;;;5.00;59.33;94892.63;5015637;28;1072;-52
2023/01/31 10:36:20;;;;;;;;;;;;;;;5.03;58.79;94897.66;5062522;28;1090;-53
2023/01/31 10:39:00;;;;;;;;;;;;;;;5.07;59.09;94899.06;5035568;28;952;-53
2023/01/31 10:41:35;;;;;;;;;;;;;;;4.98;59.75;94892.75;5035239;28;1090;-53
2023/01/31 10:44:04;;;;;;;;;;;;;;;4.97;59.78;94900.81;5035345;28;1144;-53
2023/01/31 10:46:30;;;;;;;;;;;;;;;4.88;60.86;94891.88;5034806;28;1124;-53
2023/01/31 10:48:57;;;;;;;;;;;;;;;4.90;59.99;94903.19;5035010;28;1117;-53
2023/01/31 10:51:26;;;;;;;;;;;;;;;4.85;61.05;94903.56;5035089;28;1988;-53
2023/01/31 10:53:52;;;;;;;;;;;;;;;4.65;61.33;94907.09;5035262;28;965;-53
2023/01/31 10:56:21;;;;;;;;;;;;;;;4.76;61.62;94895.56;5034800;28;1260;-53
2023/01/31 10:58:48;;;;;;;;;;;;;;;4.98;61.20;94903.34;5034938;28;990;-53
2023/01/31 11:01:14;;;;;;;;;;;;;;;4.91;61.21;94894.25;5034834;28;989;-53
2023/01/31 11:03:46;;;;;;;;;;;;;;;5.12;61.49;94890.69;5034722;28;1045;-52
2023/01/31 11:06:13;;;;;;;;;;;;;;;4.96;61.21;94892.03;5034674;28;1492;-52
2023/01/31 11:08:42;;;;;;;;;;;;;;;5.00;62.19;94889.97;5034537;28;1054;-53
2023/01/31 11:11:10;;;;;;;;;;;;;;;5.07;62.12;94885.81;5034571;28;1991;-53
2023/01/31 11:13:36;;;;;;;;;;;;;;;5.20;61.18;94883.75;5034603;28;1108;-53
2023/01/31 11:16:05;;;;;;;;;;;;;;;5.20;61.01;94888.25;5034420;28;1314;-53
2023/01/31 11:18:34;;;;;;;;;;;;;;;5.30;60.20;94878.50;5033516;28;1005;-53
2023/01/31 11:21:01;;;;;;;;;;;;;;;5.33;58.97;94875.56;5034785;28;1562;-53
2023/01/31 11:23:28;;;;;;;;;;;;;;;6.08;57.62;94880.44;5034339;28;1133;-53
2023/01/31 11:25:55;;;;;;;;;;;;;;;6.64;55.36;94879.66;5033171;28;985;-53
2023/01/31 11:28:41;;;;;;;;;;;;;;;7.00;54.29;94883.31;5017069;28;1679;-53
2023/01/31 11:31:19;;;;;;;;;;;;;;;7.03;54.19;94888.31;5034112;28;1918;-53
2023/01/31 11:33:55;;;;;;;;;;;;;;;6.79;53.51;94882.66;5014455;28;1058;-53
2023/01/31 11:36:23;;;;;;;;;;;;;;;6.42;53.59;94889.59;5027615;28;1193;-53
2023/01/31 11:38:49;;;;;;;;;;;;;;;6.05;54.03;94892.16;5034048;28;1045;-51
2023/01/31 11:45:19;;;;;;;;;;;;;;;5.53;54.41;94897.66;5021480;28;1200;-52
2023/01/31 11:47:49;;;;;;;;;;;;;;;5.53;54.63;94886.22;5033709;28;2145;-53
2023/01/31 11:50:23;;;;;;;;;;;;;;;5.44;55.46;94890.50;5034000;28;1914;-52
2023/01/31 11:52:53;;;;;;;;;;;;;;;5.50;56.20;94894.44;5033993;28;981;-52
2023/01/31 11:55:20;;;;;;;;;;;;;;;5.66;56.37;94897.41;5033753;28;1045;-53
2023/01/31 11:57:46;;;;;;;;;;;;;;;5.82;55.90;94894.19;5033448;28;1129;-52
2023/01/31 12:00:24;;;;;;;;;;;;;;;5.67;55.25;94888.47;5033732;28;1042;-53
2023/01/31 12:02:58;;;;;;;;;;;;;;;5.50;56.50;94883.81;5033736;28;1144;-53
2023/01/31 12:05:30;;;;;;;;;;;;;;;5.41;56.18;94885.50;5033650;28;1026;-53
2023/01/31 12:07:56;;;;;;;;;;;;;;;5.21;58.14;94893.38;5033664;28;1165;-54
2023/01/31 12:10:55;;;;;;;;;;;;;;;5.22;56.87;94879.16;5032606;28;1918;-53
2023/01/31 12:13:22;;;;;;;;;;;;;;;5.34;55.80;94881.72;5010780;28;1435;-53
2023/01/31 12:15:59;;;;;;;;;;;;;;;5.47;56.20;94887.59;5033494;28;1132;-53
2023/01/31 12:18:37;;;;;;;;;;;;;;;5.45;55.35;94886.91;5033384;28;918;-53
2023/01/31 12:21:13;;;;;;;;;;;;;;;5.48;55.11;94891.91;5033227;28;1302;-53
2023/01/31 12:23:42;;;;;;;;;;;;;;;5.38;55.28;94893.72;5033242;28;1026;-53
2023/01/31 12:26:13;;;;;;;;;;;;;;;5.38;54.63;94891.91;5033483;28;1021;-53
2023/01/31 12:28:54;;;;;;;;;;;;;;;5.37;54.60;94892.88;5033038;28;1115;-53
2023/01/31 12:31:32;;;;;;;;;;;;;;;5.35;53.91;94904.56;5032845;28;1979;-53
2023/01/31 12:33:58;;;;;;;;;;;;;;;5.24;54.31;94898.41;5032803;28;1098;-53
2023/01/31 12:36:39;;;;;;;;;;;;;;;5.10;54.63;94898.78;5033274;28;1017;-53
2023/01/31 12:39:25;;;;;;;;;;;;;;;5.10;55.35;94885.53;5033448;28;925;-53
2023/01/31 12:42:10;;;;;;;;;;;;;;;5.01;55.16;94889.84;5032873;28;1257;-53
2023/01/31 12:44:36;;;;;;;;;;;;;;;4.96;56.17;94900.00;5033033;28;1236;-54
2023/01/31 12:47:31;;;;;;;;;;;;;;;5.03;57.90;94901.13;5033130;28;963;-53
2023/01/31 12:50:12;;;;;;;;;;;;;;;5.09;57.67;94897.94;5028012;28;1906;-53
2023/01/31 12:52:41;;;;;;;;;;;;;;;5.18;57.58;94896.31;5036126;28;1227;-53
2023/01/31 12:55:25;;;;;;;;;;;;;;;5.25;58.00;94897.47;5037270;28;969;-54
2023/01/31 12:58:04;;;;;;;;;;;;;;;5.24;54.82;94906.38;5037102;28;1039;-54
2023/01/31 13:00:30;;;;;;;;;;;;;;;5.20;55.98;94907.63;5036709;28;1133;-53
2023/01/31 13:03:23;;;;;;;;;;;;;;;5.29;56.30;94903.31;5037003;28;1200;-53
2023/01/31 13:06:14;;;;;;;;;;;;;;;5.25;55.30;94901.91;5036989;28;1041;-54
2023/01/31 13:08:49;;;;;;;;;;;;;;;5.25;55.49;94900.13;5036869;28;1034;-54
2023/01/31 13:11:21;;;;;;;;;;;;;;;5.22;55.53;94905.69;5036990;28;1980;-52
2023/01/31 13:13:54;;;;;;;;;;;;;;;5.26;55.60;94914.19;5036740;28;962;-54
2023/01/31 13:16:41;;;;;;;;;;;;;;;5.13;54.90;94910.94;5036903;28;962;-53
2023/01/31 13:19:25;;;;;;;;;;;;;;;5.03;55.72;94913.56;5037278;28;981;-53
2023/01/31 13:21:55;;;;;;;;;;;;;;;5.04;55.37;94917.88;5036872;28;1052;-54
2023/01/31 13:24:26;;;;;;;;;;;;;;;4.93;54.95;94915.31;5036332;28;1050;-53
2023/01/31 13:26:55;;;;;;;;;;;;;;;4.87;55.59;94922.81;5035504;28;1650;-52
2023/01/31 13:29:28;;;;;;;;;;;;;;;4.81;55.71;94919.84;5036501;28;1910;-52
2023/01/31 13:32:12;;;;;;;;;;;;;;;4.76;55.93;94914.97;5036459;28;1651;-53
2023/01/31 13:34:39;;;;;;;;;;;;;;;4.78;56.00;94928.06;5036253;28;1100;-53
2023/01/31 13:37:08;;;;;;;;;;;;;;;4.76;56.25;94932.66;5036533;28;993;-54